sensor_id;sensor_type;location;lat;lon;timestamp;temperature;humidity
43987;DHT22;29650;47.378;8.300;2023-06-14T00:00:16;18.40;17.50
43987;DHT22;29650;47.378;8.300;2023-06-14T00:02:43;18.30;17.80
43987;DHT22;29650;47.378;8.300;2023-06-14T00:05:12;18.40;17.30
43987;DHT22;29650;47.378;8.300;2023-06-14T00:07:40;18.10;17.60
43987;DHT22;29650;47.378;8.300;2023-06-14T00:10:09;17.90;18.10
43987;DHT22;29650;47.378;8.300;2023-06-14T00:12:36;17.90;18.10
43987;DHT22;29650;47.378;8.300;2023-06-14T00:15:04;17.90;18.20
43987;DHT22;29650;47.378;8.300;2023-06-14T00:17:31;18.10;18.00
43987;DHT22;29650;47.378;8.300;2023-06-14T00:20:00;18.50;17.30
43987;DHT22;29650;47.378;8.300;2023-06-14T00:22:31;18.40;17.00
43987;DHT22;29650;47.378;8.300;2023-06-14T00:24:58;18.60;16.70
43987;DHT22;29650;47.378;8.300;2023-06-14T00:27:25;18.50;16.80
43987;DHT22;29650;47.378;8.300;2023-06-14T00:29:52;18.60;16.50
43987;DHT22;29650;47.378;8.300;2023-06-14T00:32:19;18.70;16.50
43987;DHT22;29650;47.378;8.300;2023-06-14T00:34:50;18.20;16.30
43987;DHT22;29650;47.378;8.300;2023-06-14T00:37:17;18.50;16.70
43987;DHT22;29650;47.378;8.300;2023-06-14T00:39:45;18.50;16.50
43987;DHT22;29650;47.378;8.300;2023-06-14T00:42:23;18.60;16.40
43987;DHT22;29650;47.378;8.300;2023-06-14T00:44:50;18.60;16.90
43987;DHT22;29650;47.378;8.300;2023-06-14T00:47:17;18.40;17.80
43987;DHT22;29650;47.378;8.300;2023-06-14T00:49:45;18.10;18.60
43987;DHT22;29650;47.378;8.300;2023-06-14T00:52:12;17.90;18.40
43987;DHT22;29650;47.378;8.300;2023-06-14T00:54:40;18.10;18.10
43987;DHT22;29650;47.378;8.300;2023-06-14T00:57:09;17.90;18.80
43987;DHT22;29650;47.378;8.300;2023-06-14T00:59:43;17.60;19.30
43987;DHT22;29650;47.378;8.300;2023-06-14T01:02:11;18.30;17.80
43987;DHT22;29650;47.378;8.300;2023-06-14T01:04:41;18.10;19.00
43987;DHT22;29650;47.378;8.300;2023-06-14T01:07:17;17.70;20.50
43987;DHT22;29650;47.378;8.300;2023-06-14T01:09:57;17.40;21.20
43987;DHT22;29650;47.378;8.300;2023-06-14T01:12:43;17.20;21.30
43987;DHT22;29650;47.378;8.300;2023-06-14T01:15:13;17.00;23.00
43987;DHT22;29650;47.378;8.300;2023-06-14T01:17:41;17.10;22.30
43987;DHT22;29650;47.378;8.300;2023-06-14T01:20:10;17.10;21.60
43987;DHT22;29650;47.378;8.300;2023-06-14T01:22:50;17.20;21.20
43987;DHT22;29650;47.378;8.300;2023-06-14T01:25:18;17.10;21.20
43987;DHT22;29650;47.378;8.300;2023-06-14T01:27:47;17.10;21.40
43987;DHT22;29650;47.378;8.300;2023-06-14T01:30:16;17.20;21.60
43987;DHT22;29650;47.378;8.300;2023-06-14T01:32:44;17.30;21.50
43987;DHT22;29650;47.378;8.300;2023-06-14T01:35:11;17.00;21.80
43987;DHT22;29650;47.378;8.300;2023-06-14T01:37:40;16.60;22.30
43987;DHT22;29650;47.378;8.300;2023-06-14T01:40:11;16.40;23.00
43987;DHT22;29650;47.378;8.300;2023-06-14T01:42:38;16.60;23.20
43987;DHT22;29650;47.378;8.300;2023-06-14T01:45:07;16.70;23.00
43987;DHT22;29650;47.378;8.300;2023-06-14T01:47:36;16.40;23.40
43987;DHT22;29650;47.378;8.300;2023-06-14T01:50:04;16.60;23.40
43987;DHT22;29650;47.378;8.300;2023-06-14T01:52:31;16.70;23.40
43987;DHT22;29650;47.378;8.300;2023-06-14T01:54:58;16.30;24.10
43987;DHT22;29650;47.378;8.300;2023-06-14T01:57:29;16.20;24.60
43987;DHT22;29650;47.378;8.300;2023-06-14T01:59:56;16.20;25.10
43987;DHT22;29650;47.378;8.300;2023-06-14T02:02:23;16.00;25.50
43987;DHT22;29650;47.378;8.300;2023-06-14T02:04:49;16.10;25.30
43987;DHT22;29650;47.378;8.300;2023-06-14T02:07:18;16.20;25.40
43987;DHT22;29650;47.378;8.300;2023-06-14T02:09:45;15.90;25.20
43987;DHT22;29650;47.378;8.300;2023-06-14T02:12:11;15.40;25.50
43987;DHT22;29650;47.378;8.300;2023-06-14T02:14:40;15.50;25.70
43987;DHT22;29650;47.378;8.300;2023-06-14T02:17:07;15.80;25.90
43987;DHT22;29650;47.378;8.300;2023-06-14T02:19:34;16.10;25.50
43987;DHT22;29650;47.378;8.300;2023-06-14T02:22:02;16.10;25.30
43987;DHT22;29650;47.378;8.300;2023-06-14T02:24:29;16.20;25.20
43987;DHT22;29650;47.378;8.300;2023-06-14T02:26:56;15.90;25.60
43987;DHT22;29650;47.378;8.300;2023-06-14T02:29:23;15.80;26.00
43987;DHT22;29650;47.378;8.300;2023-06-14T02:31:51;15.50;26.30
43987;DHT22;29650;47.378;8.300;2023-06-14T02:34:18;15.80;26.30
43987;DHT22;29650;47.378;8.300;2023-06-14T02:36:46;15.70;26.60
43987;DHT22;29650;47.378;8.300;2023-06-14T02:39:13;15.50;26.70
43987;DHT22;29650;47.378;8.300;2023-06-14T02:41:40;15.40;27.10
43987;DHT22;29650;47.378;8.300;2023-06-14T02:44:07;15.10;28.00
43987;DHT22;29650;47.378;8.300;2023-06-14T02:46:35;15.40;28.10
43987;DHT22;29650;47.378;8.300;2023-06-14T02:49:03;15.50;28.00
43987;DHT22;29650;47.378;8.300;2023-06-14T02:51:30;15.50;28.00
43987;DHT22;29650;47.378;8.300;2023-06-14T02:53:57;15.40;28.70
43987;DHT22;29650;47.378;8.300;2023-06-14T02:56:24;15.30;28.30
43987;DHT22;29650;47.378;8.300;2023-06-14T02:58:51;15.40;28.40
43987;DHT22;29650;47.378;8.300;2023-06-14T03:01:18;15.10;28.50
43987;DHT22;29650;47.378;8.300;2023-06-14T03:03:47;15.40;28.50
43987;DHT22;29650;47.378;8.300;2023-06-14T03:06:15;14.90;29.20
43987;DHT22;29650;47.378;8.300;2023-06-14T03:08:42;14.70;31.70
43987;DHT22;29650;47.378;8.300;2023-06-14T03:11:10;14.40;35.10
43987;DHT22;29650;47.378;8.300;2023-06-14T03:13:37;14.30;36.50
43987;DHT22;29650;47.378;8.300;2023-06-14T03:16:06;14.50;36.80
43987;DHT22;29650;47.378;8.300;2023-06-14T03:18:34;14.50;37.00
43987;DHT22;29650;47.378;8.300;2023-06-14T03:21:02;14.40;36.80
43987;DHT22;29650;47.378;8.300;2023-06-14T03:23:30;14.40;36.40
43987;DHT22;29650;47.378;8.300;2023-06-14T03:25:57;14.60;35.40
43987;DHT22;29650;47.378;8.300;2023-06-14T03:28:24;14.50;35.10
43987;DHT22;29650;47.378;8.300;2023-06-14T03:30:52;14.80;34.40
43987;DHT22;29650;47.378;8.300;2023-06-14T03:33:19;14.80;33.80
43987;DHT22;29650;47.378;8.300;2023-06-14T03:35:46;14.80;32.70
43987;DHT22;29650;47.378;8.300;2023-06-14T03:38:13;14.80;31.40
43987;DHT22;29650;47.378;8.300;2023-06-14T03:40:42;14.80;30.40
43987;DHT22;29650;47.378;8.300;2023-06-14T03:43:10;14.70;30.70
43987;DHT22;29650;47.378;8.300;2023-06-14T03:45:37;14.80;30.70
43987;DHT22;29650;47.378;8.300;2023-06-14T03:48:04;14.50;31.10
43987;DHT22;29650;47.378;8.300;2023-06-14T03:50:32;14.70;31.40
43987;DHT22;29650;47.378;8.300;2023-06-14T03:52:59;14.10;33.90
43987;DHT22;29650;47.378;8.300;2023-06-14T03:55:27;14.30;33.70
43987;DHT22;29650;47.378;8.300;2023-06-14T03:57:58;14.10;35.50
43987;DHT22;29650;47.378;8.300;2023-06-14T04:00:25;13.80;37.50
43987;DHT22;29650;47.378;8.300;2023-06-14T04:02:52;14.00;37.30
43987;DHT22;29650;47.378;8.300;2023-06-14T04:05:19;13.80;40.00
43987;DHT22;29650;47.378;8.300;2023-06-14T04:07:46;14.00;40.30
43987;DHT22;29650;47.378;8.300;2023-06-14T04:10:15;14.00;39.30
43987;DHT22;29650;47.378;8.300;2023-06-14T04:12:42;14.20;39.00
43987;DHT22;29650;47.378;8.300;2023-06-14T04:15:11;14.20;38.10
43987;DHT22;29650;47.378;8.300;2023-06-14T04:17:39;14.70;36.80
43987;DHT22;29650;47.378;8.300;2023-06-14T04:20:07;14.30;36.70
43987;DHT22;29650;47.378;8.300;2023-06-14T04:22:36;15.00;34.50
43987;DHT22;29650;47.378;8.300;2023-06-14T04:25:03;14.70;34.70
43987;DHT22;29650;47.378;8.300;2023-06-14T04:27:32;14.80;35.40
43987;DHT22;29650;47.378;8.300;2023-06-14T04:29:59;14.90;35.30
43987;DHT22;29650;47.378;8.300;2023-06-14T04:32:29;14.70;35.50
43987;DHT22;29650;47.378;8.300;2023-06-14T04:34:59;14.70;35.50
43987;DHT22;29650;47.378;8.300;2023-06-14T04:37:28;14.70;36.30
43987;DHT22;29650;47.378;8.300;2023-06-14T04:39:56;14.90;35.80
43987;DHT22;29650;47.378;8.300;2023-06-14T04:42:23;15.00;35.40
43987;DHT22;29650;47.378;8.300;2023-06-14T04:44:51;15.10;34.70
43987;DHT22;29650;47.378;8.300;2023-06-14T04:47:21;14.90;35.40
43987;DHT22;29650;47.378;8.300;2023-06-14T04:49:51;14.90;35.90
43987;DHT22;29650;47.378;8.300;2023-06-14T04:52:19;14.50;35.30
43987;DHT22;29650;47.378;8.300;2023-06-14T04:54:47;14.70;37.20
43987;DHT22;29650;47.378;8.300;2023-06-14T04:57:14;15.00;39.00
43987;DHT22;29650;47.378;8.300;2023-06-14T04:59:43;15.10;38.10
43987;DHT22;29650;47.378;8.300;2023-06-14T05:02:10;15.00;39.90
43987;DHT22;29650;47.378;8.300;2023-06-14T05:04:37;15.00;39.70
43987;DHT22;29650;47.378;8.300;2023-06-14T05:07:07;15.60;39.10
43987;DHT22;29650;47.378;8.300;2023-06-14T05:09:34;16.00;31.10
43987;DHT22;29650;47.378;8.300;2023-06-14T05:12:02;16.00;34.80
43987;DHT22;29650;47.378;8.300;2023-06-14T05:14:29;15.60;35.20
43987;DHT22;29650;47.378;8.300;2023-06-14T05:16:56;15.90;35.80
43987;DHT22;29650;47.378;8.300;2023-06-14T05:19:23;16.00;36.00
43987;DHT22;29650;47.378;8.300;2023-06-14T05:21:50;15.90;37.20
43987;DHT22;29650;47.378;8.300;2023-06-14T05:24:21;15.80;40.10
43987;DHT22;29650;47.378;8.300;2023-06-14T05:26:48;15.90;39.50
43987;DHT22;29650;47.378;8.300;2023-06-14T05:29:15;16.00;39.20
43987;DHT22;29650;47.378;8.300;2023-06-14T05:31:42;16.20;38.40
43987;DHT22;29650;47.378;8.300;2023-06-14T05:34:09;15.80;37.90
43987;DHT22;29650;47.378;8.300;2023-06-14T05:36:36;16.20;38.10
43987;DHT22;29650;47.378;8.300;2023-06-14T05:39:04;16.30;38.50
43987;DHT22;29650;47.378;8.300;2023-06-14T05:41:33;16.50;37.20
43987;DHT22;29650;47.378;8.300;2023-06-14T05:44:01;16.60;36.90
43987;DHT22;29650;47.378;8.300;2023-06-14T05:46:28;16.80;37.30
43987;DHT22;29650;47.378;8.300;2023-06-14T05:48:55;17.00;37.80
43987;DHT22;29650;47.378;8.300;2023-06-14T05:51:23;17.00;33.40
43987;DHT22;29650;47.378;8.300;2023-06-14T05:53:52;17.60;30.30
43987;DHT22;29650;47.378;8.300;2023-06-14T05:56:21;17.70;32.00
43987;DHT22;29650;47.378;8.300;2023-06-14T05:58:50;17.80;34.30
43987;DHT22;29650;47.378;8.300;2023-06-14T06:01:17;17.70;34.80
43987;DHT22;29650;47.378;8.300;2023-06-14T06:03:44;17.50;37.20
43987;DHT22;29650;47.378;8.300;2023-06-14T06:06:13;17.90;37.10
43987;DHT22;29650;47.378;8.300;2023-06-14T06:08:40;18.20;33.10
43987;DHT22;29650;47.378;8.300;2023-06-14T06:11:08;18.30;30.00
43987;DHT22;29650;47.378;8.300;2023-06-14T06:13:35;18.50;28.20
43987;DHT22;29650;47.378;8.300;2023-06-14T06:16:04;18.70;25.50
43987;DHT22;29650;47.378;8.300;2023-06-14T06:18:31;18.90;28.70
43987;DHT22;29650;47.378;8.300;2023-06-14T06:20:58;18.70;26.30
43987;DHT22;29650;47.378;8.300;2023-06-14T06:23:25;18.80;24.50
43987;DHT22;29650;47.378;8.300;2023-06-14T06:25:52;19.00;23.70
43987;DHT22;29650;47.378;8.300;2023-06-14T06:28:19;19.30;23.60
43987;DHT22;29650;47.378;8.300;2023-06-14T06:30:46;19.30;23.10
43987;DHT22;29650;47.378;8.300;2023-06-14T06:33:15;19.40;22.60
43987;DHT22;29650;47.378;8.300;2023-06-14T06:35:42;19.10;22.40
43987;DHT22;29650;47.378;8.300;2023-06-14T06:38:09;19.30;22.10
43987;DHT22;29650;47.378;8.300;2023-06-14T06:40:36;19.40;21.50
43987;DHT22;29650;47.378;8.300;2023-06-14T06:43:03;19.50;21.70
43987;DHT22;29650;47.378;8.300;2023-06-14T06:45:30;19.50;21.20
43987;DHT22;29650;47.378;8.300;2023-06-14T06:47:57;18.90;21.20
43987;DHT22;29650;47.378;8.300;2023-06-14T06:50:25;19.40;21.60
43987;DHT22;29650;47.378;8.300;2023-06-14T06:52:52;19.80;21.20
43987;DHT22;29650;47.378;8.300;2023-06-14T06:55:20;19.50;21.50
43987;DHT22;29650;47.378;8.300;2023-06-14T06:57:47;19.80;21.30
43987;DHT22;29650;47.378;8.300;2023-06-14T07:00:16;19.90;21.60
43987;DHT22;29650;47.378;8.300;2023-06-14T07:02:43;19.40;21.80
43987;DHT22;29650;47.378;8.300;2023-06-14T07:05:10;19.80;21.40
43987;DHT22;29650;47.378;8.300;2023-06-14T07:07:39;20.00;20.90
43987;DHT22;29650;47.378;8.300;2023-06-14T07:10:06;19.90;22.10
43987;DHT22;29650;47.378;8.300;2023-06-14T07:12:34;20.20;21.60
43987;DHT22;29650;47.378;8.300;2023-06-14T07:15:06;20.30;21.70
43987;DHT22;29650;47.378;8.300;2023-06-14T07:17:33;20.40;21.30
43987;DHT22;29650;47.378;8.300;2023-06-14T07:20:01;20.40;20.80
43987;DHT22;29650;47.378;8.300;2023-06-14T07:22:39;20.50;20.40
43987;DHT22;29650;47.378;8.300;2023-06-14T07:25:08;20.60;20.20
43987;DHT22;29650;47.378;8.300;2023-06-14T07:27:35;20.70;21.70
43987;DHT22;29650;47.378;8.300;2023-06-14T07:30:02;20.50;20.10
43987;DHT22;29650;47.378;8.300;2023-06-14T07:32:29;20.70;19.30
43987;DHT22;29650;47.378;8.300;2023-06-14T07:34:56;20.50;19.00
43987;DHT22;29650;47.378;8.300;2023-06-14T07:37:23;20.80;19.90
43987;DHT22;29650;47.378;8.300;2023-06-14T07:39:52;21.10;19.10
43987;DHT22;29650;47.378;8.300;2023-06-14T07:42:18;21.10;19.00
43987;DHT22;29650;47.378;8.300;2023-06-14T07:44:46;21.30;18.80
43987;DHT22;29650;47.378;8.300;2023-06-14T07:47:13;21.50;19.40
43987;DHT22;29650;47.378;8.300;2023-06-14T07:49:40;21.50;17.40
43987;DHT22;29650;47.378;8.300;2023-06-14T07:52:07;21.70;16.60
43987;DHT22;29650;47.378;8.300;2023-06-14T07:54:34;21.40;17.20
43987;DHT22;29650;47.378;8.300;2023-06-14T07:57:03;21.50;17.00
43987;DHT22;29650;47.378;8.300;2023-06-14T07:59:30;21.50;17.50
43987;DHT22;29650;47.378;8.300;2023-06-14T08:01:57;21.60;17.30
43987;DHT22;29650;47.378;8.300;2023-06-14T08:04:24;21.90;17.00
43987;DHT22;29650;47.378;8.300;2023-06-14T08:06:51;21.90;16.90
43987;DHT22;29650;47.378;8.300;2023-06-14T08:09:18;22.00;17.40
43987;DHT22;29650;47.378;8.300;2023-06-14T08:11:45;22.00;17.50
43987;DHT22;29650;47.378;8.300;2023-06-14T08:14:14;22.20;16.80
43987;DHT22;29650;47.378;8.300;2023-06-14T08:16:41;22.20;15.00
43987;DHT22;29650;47.378;8.300;2023-06-14T08:19:08;22.00;14.90
43987;DHT22;29650;47.378;8.300;2023-06-14T08:21:35;22.00;16.00
43987;DHT22;29650;47.378;8.300;2023-06-14T08:24:02;22.30;16.40
43987;DHT22;29650;47.378;8.300;2023-06-14T08:26:29;22.50;14.90
43987;DHT22;29650;47.378;8.300;2023-06-14T08:28:57;22.10;15.00
43987;DHT22;29650;47.378;8.300;2023-06-14T08:31:26;22.30;15.00
43987;DHT22;29650;47.378;8.300;2023-06-14T08:33:53;22.30;14.90
43987;DHT22;29650;47.378;8.300;2023-06-14T08:36:20;22.70;15.20
43987;DHT22;29650;47.378;8.300;2023-06-14T08:38:48;22.70;14.50
43987;DHT22;29650;47.378;8.300;2023-06-14T08:41:20;22.80;14.00
43987;DHT22;29650;47.378;8.300;2023-06-14T08:43:47;22.90;14.10
43987;DHT22;29650;47.378;8.300;2023-06-14T08:46:17;22.80;13.80
43987;DHT22;29650;47.378;8.300;2023-06-14T08:48:47;22.20;13.90
43987;DHT22;29650;47.378;8.300;2023-06-14T08:51:18;23.00;15.00
43987;DHT22;29650;47.378;8.300;2023-06-14T08:53:49;23.00;14.70
43987;DHT22;29650;47.378;8.300;2023-06-14T08:56:18;23.30;14.50
43987;DHT22;29650;47.378;8.300;2023-06-14T08:58:47;23.10;14.50
43987;DHT22;29650;47.378;8.300;2023-06-14T09:01:14;23.30;14.90
43987;DHT22;29650;47.378;8.300;2023-06-14T09:03:43;23.50;14.70
43987;DHT22;29650;47.378;8.300;2023-06-14T09:06:12;23.50;15.20
43987;DHT22;29650;47.378;8.300;2023-06-14T09:08:41;23.40;14.70
43987;DHT22;29650;47.378;8.300;2023-06-14T09:11:10;23.50;14.20
43987;DHT22;29650;47.378;8.300;2023-06-14T09:13:38;23.50;14.50
43987;DHT22;29650;47.378;8.300;2023-06-14T09:16:06;23.30;14.80
43987;DHT22;29650;47.378;8.300;2023-06-14T09:18:37;23.20;14.90
43987;DHT22;29650;47.378;8.300;2023-06-14T09:21:06;23.30;15.20
43987;DHT22;29650;47.378;8.300;2023-06-14T09:23:36;23.60;15.00
43987;DHT22;29650;47.378;8.300;2023-06-14T09:26:08;23.80;14.80
43987;DHT22;29650;47.378;8.300;2023-06-14T09:28:35;23.30;13.50
43987;DHT22;29650;47.378;8.300;2023-06-14T09:31:02;23.90;14.50
43987;DHT22;29650;47.378;8.300;2023-06-14T09:33:31;23.70;13.70
43987;DHT22;29650;47.378;8.300;2023-06-14T09:35:58;24.20;14.10
43987;DHT22;29650;47.378;8.300;2023-06-14T09:38:25;24.20;13.30
43987;DHT22;29650;47.378;8.300;2023-06-14T09:40:56;24.20;12.80
43987;DHT22;29650;47.378;8.300;2023-06-14T09:43:23;24.60;13.20
43987;DHT22;29650;47.378;8.300;2023-06-14T09:45:52;24.50;12.60
43987;DHT22;29650;47.378;8.300;2023-06-14T09:48:19;24.50;12.20
43987;DHT22;29650;47.378;8.300;2023-06-14T09:50:50;24.50;12.30
43987;DHT22;29650;47.378;8.300;2023-06-14T09:53:20;24.50;11.70
43987;DHT22;29650;47.378;8.300;2023-06-14T09:55:49;24.40;11.70
43987;DHT22;29650;47.378;8.300;2023-06-14T09:58:20;24.80;12.90
43987;DHT22;29650;47.378;8.300;2023-06-14T10:00:50;24.80;12.30
43987;DHT22;29650;47.378;8.300;2023-06-14T10:03:23;24.80;12.40
43987;DHT22;29650;47.378;8.300;2023-06-14T10:05:51;25.00;12.60
43987;DHT22;29650;47.378;8.300;2023-06-14T10:08:19;25.10;12.10
43987;DHT22;29650;47.378;8.300;2023-06-14T10:10:51;24.90;12.20
43987;DHT22;29650;47.378;8.300;2023-06-14T10:13:20;25.20;11.80
43987;DHT22;29650;47.378;8.300;2023-06-14T10:15:58;25.30;12.50
43987;DHT22;29650;47.378;8.300;2023-06-14T10:18:32;25.20;11.20
43987;DHT22;29650;47.378;8.300;2023-06-14T10:21:06;25.40;11.90
43987;DHT22;29650;47.378;8.300;2023-06-14T10:23:38;25.70;12.10
43987;DHT22;29650;47.378;8.300;2023-06-14T10:26:06;25.50;11.80
43987;DHT22;29650;47.378;8.300;2023-06-14T10:28:37;25.70;11.20
43987;DHT22;29650;47.378;8.300;2023-06-14T10:31:08;25.40;10.50
43987;DHT22;29650;47.378;8.300;2023-06-14T10:33:36;25.50;9.90
43987;DHT22;29650;47.378;8.300;2023-06-14T10:36:26;25.80;10.40
43987;DHT22;29650;47.378;8.300;2023-06-14T10:39:00;25.70;10.10
43987;DHT22;29650;47.378;8.300;2023-06-14T10:41:28;25.50;9.70
43987;DHT22;29650;47.378;8.300;2023-06-14T10:44:32;25.30;10.20
43987;DHT22;29650;47.378;8.300;2023-06-14T10:47:00;25.90;10.90
43987;DHT22;29650;47.378;8.300;2023-06-14T10:49:38;25.40;10.30
43987;DHT22;29650;47.378;8.300;2023-06-14T10:52:08;25.40;10.20
43987;DHT22;29650;47.378;8.300;2023-06-14T10:57:43;25.90;9.90
43987;DHT22;29650;47.378;8.300;2023-06-14T11:00:14;26.20;9.80
43987;DHT22;29650;47.378;8.300;2023-06-14T11:05:58;26.10;9.90
43987;DHT22;29650;47.378;8.300;2023-06-14T11:11:38;26.50;10.40
43987;DHT22;29650;47.378;8.300;2023-06-14T11:14:08;26.60;9.60
43987;DHT22;29650;47.378;8.300;2023-06-14T11:16:36;26.40;8.90
43987;DHT22;29650;47.378;8.300;2023-06-14T11:19:03;25.90;9.00
43987;DHT22;29650;47.378;8.300;2023-06-14T11:21:32;26.00;10.00
43987;DHT22;29650;47.378;8.300;2023-06-14T11:23:59;26.40;9.00
43987;DHT22;29650;47.378;8.300;2023-06-14T11:26:27;26.60;9.40
43987;DHT22;29650;47.378;8.300;2023-06-14T11:28:57;26.60;9.60
43987;DHT22;29650;47.378;8.300;2023-06-14T11:31:25;27.20;10.20
43987;DHT22;29650;47.378;8.300;2023-06-14T11:33:55;27.10;9.50
43987;DHT22;29650;47.378;8.300;2023-06-14T11:36:23;26.90;9.00
43987;DHT22;29650;47.378;8.300;2023-06-14T11:38:50;26.40;8.10
43987;DHT22;29650;47.378;8.300;2023-06-14T11:41:24;26.20;7.40
43987;DHT22;29650;47.378;8.300;2023-06-14T11:43:52;26.70;8.50
43987;DHT22;29650;47.378;8.300;2023-06-14T11:46:19;27.10;9.30
43987;DHT22;29650;47.378;8.300;2023-06-14T11:48:49;27.20;9.20
43987;DHT22;29650;47.378;8.300;2023-06-14T11:51:20;27.00;7.70
43987;DHT22;29650;47.378;8.300;2023-06-14T11:53:47;26.40;8.80
43987;DHT22;29650;47.378;8.300;2023-06-14T11:56:15;26.40;9.20
43987;DHT22;29650;47.378;8.300;2023-06-14T11:58:42;26.60;9.10
43987;DHT22;29650;47.378;8.300;2023-06-14T12:01:14;26.30;8.70
43987;DHT22;29650;47.378;8.300;2023-06-14T12:03:47;26.40;8.90
43987;DHT22;29650;47.378;8.300;2023-06-14T12:06:15;26.30;7.90
43987;DHT22;29650;47.378;8.300;2023-06-14T12:08:44;26.60;7.80
43987;DHT22;29650;47.378;8.300;2023-06-14T12:11:15;26.80;8.40
43987;DHT22;29650;47.378;8.300;2023-06-14T12:13:43;27.00;8.80
43987;DHT22;29650;47.378;8.300;2023-06-14T12:16:11;27.20;8.00
43987;DHT22;29650;47.378;8.300;2023-06-14T12:18:39;27.10;8.40
43987;DHT22;29650;47.378;8.300;2023-06-14T12:21:07;27.20;8.20
43987;DHT22;29650;47.378;8.300;2023-06-14T12:23:47;27.70;9.40
43987;DHT22;29650;47.378;8.300;2023-06-14T12:26:15;27.70;8.90
43987;DHT22;29650;47.378;8.300;2023-06-14T12:28:43;28.00;9.10
43987;DHT22;29650;47.378;8.300;2023-06-14T12:31:11;28.20;8.80
43987;DHT22;29650;47.378;8.300;2023-06-14T12:33:39;28.10;7.60
43987;DHT22;29650;47.378;8.300;2023-06-14T12:36:07;28.10;7.60
43987;DHT22;29650;47.378;8.300;2023-06-14T12:38:34;27.90;8.20
43987;DHT22;29650;47.378;8.300;2023-06-14T12:41:03;27.50;7.10
43987;DHT22;29650;47.378;8.300;2023-06-14T12:43:30;27.60;7.10
43987;DHT22;29650;47.378;8.300;2023-06-14T12:45:57;28.00;7.90
43987;DHT22;29650;47.378;8.300;2023-06-14T12:48:24;27.30;7.60
43987;DHT22;29650;47.378;8.300;2023-06-14T12:50:53;27.40;8.90
43987;DHT22;29650;47.378;8.300;2023-06-14T12:53:19;27.00;8.50
43987;DHT22;29650;47.378;8.300;2023-06-14T12:55:46;27.00;8.70
43987;DHT22;29650;47.378;8.300;2023-06-14T12:58:15;27.00;8.50
43987;DHT22;29650;47.378;8.300;2023-06-14T13:00:42;27.20;8.20
43987;DHT22;29650;47.378;8.300;2023-06-14T13:03:10;26.80;8.30
43987;DHT22;29650;47.378;8.300;2023-06-14T13:05:37;27.00;8.50
43987;DHT22;29650;47.378;8.300;2023-06-14T13:08:07;27.10;8.00
43987;DHT22;29650;47.378;8.300;2023-06-14T13:10:34;27.30;8.90
43987;DHT22;29650;47.378;8.300;2023-06-14T13:13:01;27.60;8.80
43987;DHT22;29650;47.378;8.300;2023-06-14T13:15:30;28.10;9.20
43987;DHT22;29650;47.378;8.300;2023-06-14T13:17:57;28.30;8.00
43987;DHT22;29650;47.378;8.300;2023-06-14T13:20:24;28.50;7.90
43987;DHT22;29650;47.378;8.300;2023-06-14T13:22:51;28.40;8.20
43987;DHT22;29650;47.378;8.300;2023-06-14T13:25:18;28.40;7.40
43987;DHT22;29650;47.378;8.300;2023-06-14T13:27:45;28.30;7.30
43987;DHT22;29650;47.378;8.300;2023-06-14T13:30:12;28.50;8.20
43987;DHT22;29650;47.378;8.300;2023-06-14T13:32:40;28.60;7.00
43987;DHT22;29650;47.378;8.300;2023-06-14T13:35:08;28.20;6.80
43987;DHT22;29650;47.378;8.300;2023-06-14T13:37:34;28.80;8.50
43987;DHT22;29650;47.378;8.300;2023-06-14T13:40:01;28.70;7.90
43987;DHT22;29650;47.378;8.300;2023-06-14T13:42:28;29.10;7.80
43987;DHT22;29650;47.378;8.300;2023-06-14T13:44:58;28.70;7.40
43987;DHT22;29650;47.378;8.300;2023-06-14T13:47:25;28.10;7.50
43987;DHT22;29650;47.378;8.300;2023-06-14T13:49:53;27.80;7.50
43987;DHT22;29650;47.378;8.300;2023-06-14T13:52:20;28.00;7.80
43987;DHT22;29650;47.378;8.300;2023-06-14T13:54:48;28.10;8.20
43987;DHT22;29650;47.378;8.300;2023-06-14T13:57:15;28.60;7.40
43987;DHT22;29650;47.378;8.300;2023-06-14T13:59:42;28.50;7.10
43987;DHT22;29650;47.378;8.300;2023-06-14T14:02:11;28.20;6.00
43987;DHT22;29650;47.378;8.300;2023-06-14T14:04:39;28.50;6.60
43987;DHT22;29650;47.378;8.300;2023-06-14T14:07:08;28.60;7.00
43987;DHT22;29650;47.378;8.300;2023-06-14T14:09:35;29.00;7.40
43987;DHT22;29650;47.378;8.300;2023-06-14T14:12:03;29.10;7.30
43987;DHT22;29650;47.378;8.300;2023-06-14T14:14:31;29.00;6.80
43987;DHT22;29650;47.378;8.300;2023-06-14T14:16:58;28.70;6.80
43987;DHT22;29650;47.378;8.300;2023-06-14T14:19:25;28.10;7.00
43987;DHT22;29650;47.378;8.300;2023-06-14T14:21:52;28.10;7.60
43987;DHT22;29650;47.378;8.300;2023-06-14T14:24:21;28.50;7.80
43987;DHT22;29650;47.378;8.300;2023-06-14T14:26:48;28.70;7.60
43987;DHT22;29650;47.378;8.300;2023-06-14T14:29:15;28.10;7.10
43987;DHT22;29650;47.378;8.300;2023-06-14T14:31:42;28.20;7.40
43987;DHT22;29650;47.378;8.300;2023-06-14T14:34:09;28.50;7.30
43987;DHT22;29650;47.378;8.300;2023-06-14T14:36:36;29.00;7.40
43987;DHT22;29650;47.378;8.300;2023-06-14T14:39:06;29.00;7.40
43987;DHT22;29650;47.378;8.300;2023-06-14T14:41:35;28.70;7.50
43987;DHT22;29650;47.378;8.300;2023-06-14T14:44:03;28.50;7.20
43987;DHT22;29650;47.378;8.300;2023-06-14T14:46:30;28.40;6.90
43987;DHT22;29650;47.378;8.300;2023-06-14T14:48:58;28.50;8.00
43987;DHT22;29650;47.378;8.300;2023-06-14T14:51:25;28.70;7.60
43987;DHT22;29650;47.378;8.300;2023-06-14T14:53:51;28.80;8.00
43987;DHT22;29650;47.378;8.300;2023-06-14T14:56:18;28.80;8.10
43987;DHT22;29650;47.378;8.300;2023-06-14T14:58:47;29.60;8.80
43987;DHT22;29650;47.378;8.300;2023-06-14T15:01:14;29.40;7.40
43987;DHT22;29650;47.378;8.300;2023-06-14T15:03:41;29.50;8.10
43987;DHT22;29650;47.378;8.300;2023-06-14T15:06:08;29.70;7.50
43987;DHT22;29650;47.378;8.300;2023-06-14T15:08:35;30.00;7.40
43987;DHT22;29650;47.378;8.300;2023-06-14T15:11:01;29.80;8.20
43987;DHT22;29650;47.378;8.300;2023-06-14T15:13:28;29.40;7.40
43987;DHT22;29650;47.378;8.300;2023-06-14T15:15:57;29.40;7.70
43987;DHT22;29650;47.378;8.300;2023-06-14T15:18:23;29.00;7.40
43987;DHT22;29650;47.378;8.300;2023-06-14T15:20:50;28.90;7.50
43987;DHT22;29650;47.378;8.300;2023-06-14T15:23:17;28.70;7.30
43987;DHT22;29650;47.378;8.300;2023-06-14T15:25:46;29.30;8.20
43987;DHT22;29650;47.378;8.300;2023-06-14T15:28:13;29.50;7.30
43987;DHT22;29650;47.378;8.300;2023-06-14T15:30:40;29.80;7.10
43987;DHT22;29650;47.378;8.300;2023-06-14T15:33:09;30.00;7.00
43987;DHT22;29650;47.378;8.300;2023-06-14T15:35:36;29.50;7.50
43987;DHT22;29650;47.378;8.300;2023-06-14T15:38:02;29.70;8.30
43987;DHT22;29650;47.378;8.300;2023-06-14T15:40:29;30.00;7.00
43987;DHT22;29650;47.378;8.300;2023-06-14T15:42:56;30.30;7.90
43987;DHT22;29650;47.378;8.300;2023-06-14T15:45:23;30.50;7.40
43987;DHT22;29650;47.378;8.300;2023-06-14T15:47:50;30.80;6.70
43987;DHT22;29650;47.378;8.300;2023-06-14T15:50:19;30.80;6.70